<?xml version="1.0" encoding="UTF-8" standalone="no" ?>
<gpx xmlns="http://www.topografix.com/GPX/1/1" xmlns:xsi="http://www.w3.org/2001/XMLSchema-instance" xsi:schemaLocation="http://www.topografix.com/GPX/1/1 http://www.topografix.com/GPX/1/1/gpx.xsd" version="1.1" creator="VisuGPX - https://www.visugpx.com">
  <metadata>
    <name>boucles beaumont</name>
    <desc><![CDATA[boucles beaumont du périgord]]></desc>
  </metadata>
  <trk>
    <name><![CDATA[BBmt44]]></name>
    <trkseg>
      <trkpt lat="44.76705" lon="0.79353">
        <ele>88</ele>
        <time>2009-01-15T13:10:15Z</time>
      </trkpt>
      <trkpt lat="44.76703" lon="0.79323">
        <ele>85</ele>
        <time>2009-01-15T13:10:36Z</time>
      </trkpt>
      <trkpt lat="44.76723" lon="0.7931">
        <ele>87</ele>
        <time>2009-01-15T13:10:44Z</time>
      </trkpt>
      <trkpt lat="44.76743" lon="0.79315">
        <ele>87</ele>
        <time>2009-01-15T13:10:49Z</time>
      </trkpt>
      <trkpt lat="44.76763" lon="0.79313">
        <ele>87</ele>
        <time>2009-01-15T13:10:58Z</time>
      </trkpt>
      <trkpt lat="44.7678" lon="0.79305">
        <ele>98</ele>
        <time>2009-01-15T13:11:20Z</time>
      </trkpt>
      <trkpt lat="44.76785" lon="0.7928">
        <ele>97</ele>
        <time>2009-01-15T13:11:25Z</time>
      </trkpt>
      <trkpt lat="44.76785" lon="0.79253">
        <ele>97</ele>
        <time>2009-01-15T13:11:30Z</time>
      </trkpt>
      <trkpt lat="44.76783" lon="0.7922">
        <ele>96</ele>
        <time>2009-01-15T13:11:35Z</time>
      </trkpt>
      <trkpt lat="44.76775" lon="0.7919">
        <ele>98</ele>
        <time>2009-01-15T13:11:40Z</time>
      </trkpt>
      <trkpt lat="44.76775" lon="0.7916">
        <ele>102</ele>
        <time>2009-01-15T13:11:45Z</time>
      </trkpt>
      <trkpt lat="44.76775" lon="0.7913">
        <ele>105</ele>
        <time>2009-01-15T13:11:50Z</time>
      </trkpt>
      <trkpt lat="44.7678" lon="0.79105">
        <ele>110</ele>
        <time>2009-01-15T13:11:56Z</time>
      </trkpt>
      <trkpt lat="44.7679" lon="0.7908">
        <ele>114</ele>
        <time>2009-01-15T13:12:01Z</time>
      </trkpt>
      <trkpt lat="44.76803" lon="0.7906">
        <ele>122</ele>
        <time>2009-01-15T13:12:06Z</time>
      </trkpt>
      <trkpt lat="44.76815" lon="0.79035">
        <ele>127</ele>
        <time>2009-01-15T13:12:11Z</time>
      </trkpt>
      <trkpt lat="44.76833" lon="0.7902">
        <ele>131</ele>
        <time>2009-01-15T13:12:25Z</time>
      </trkpt>
      <trkpt lat="44.76835" lon="0.78993">
        <ele>127</ele>
        <time>2009-01-15T13:12:39Z</time>
      </trkpt>
      <trkpt lat="44.76835" lon="0.78965">
        <ele>126</ele>
        <time>2009-01-15T13:12:43Z</time>
      </trkpt>
      <trkpt lat="44.76833" lon="0.78935">
        <ele>125</ele>
        <time>2009-01-15T13:12:47Z</time>
      </trkpt>
      <trkpt lat="44.7683" lon="0.78905">
        <ele>127</ele>
        <time>2009-01-15T13:12:52Z</time>
      </trkpt>
      <trkpt lat="44.7684" lon="0.7888">
        <ele>129</ele>
        <time>2009-01-15T13:12:57Z</time>
      </trkpt>
      <trkpt lat="44.76848" lon="0.78855">
        <ele>130</ele>
        <time>2009-01-15T13:13:01Z</time>
      </trkpt>
      <trkpt lat="44.76848" lon="0.78825">
        <ele>131</ele>
        <time>2009-01-15T13:13:05Z</time>
      </trkpt>
      <trkpt lat="44.7685" lon="0.78798">
        <ele>131</ele>
        <time>2009-01-15T13:13:09Z</time>
      </trkpt>
      <trkpt lat="44.76853" lon="0.78768">
        <ele>133</ele>
        <time>2009-01-15T13:13:13Z</time>
      </trkpt>
      <trkpt lat="44.76853" lon="0.7874">
        <ele>132</ele>
        <time>2009-01-15T13:13:19Z</time>
      </trkpt>
      <trkpt lat="44.76855" lon="0.78708">
        <ele>132</ele>
        <time>2009-01-15T13:13:25Z</time>
      </trkpt>
      <trkpt lat="44.76853" lon="0.78678">
        <ele>132</ele>
        <time>2009-01-15T13:13:30Z</time>
      </trkpt>
      <trkpt lat="44.76843" lon="0.78655">
        <ele>132</ele>
        <time>2009-01-15T13:13:35Z</time>
      </trkpt>
      <trkpt lat="44.76825" lon="0.78643">
        <ele>130</ele>
        <time>2009-01-15T13:13:39Z</time>
      </trkpt>
      <trkpt lat="44.76818" lon="0.78613">
        <ele>128</ele>
        <time>2009-01-15T13:13:45Z</time>
      </trkpt>
      <trkpt lat="44.7681" lon="0.78583">
        <ele>126</ele>
        <time>2009-01-15T13:13:49Z</time>
      </trkpt>
      <trkpt lat="44.76805" lon="0.7855">
        <ele>126</ele>
        <time>2009-01-15T13:13:53Z</time>
      </trkpt>
      <trkpt lat="44.76805" lon="0.78523">
        <ele>127</ele>
        <time>2009-01-15T13:13:57Z</time>
      </trkpt>
      <trkpt lat="44.76805" lon="0.7849">
        <ele>130</ele>
        <time>2009-01-15T13:14:13Z</time>
      </trkpt>
      <trkpt lat="44.76808" lon="0.78458">
        <ele>132</ele>
        <time>2009-01-15T13:14:18Z</time>
      </trkpt>
      <trkpt lat="44.76813" lon="0.7843">
        <ele>132</ele>
        <time>2009-01-15T13:14:21Z</time>
      </trkpt>
      <trkpt lat="44.76818" lon="0.78403">
        <ele>133</ele>
        <time>2009-01-15T13:14:24Z</time>
      </trkpt>
      <trkpt lat="44.76825" lon="0.78375">
        <ele>134</ele>
        <time>2009-01-15T13:14:27Z</time>
      </trkpt>
      <trkpt lat="44.76833" lon="0.78345">
        <ele>135</ele>
        <time>2009-01-15T13:14:30Z</time>
      </trkpt>
      <trkpt lat="44.7684" lon="0.78318">
        <ele>137</ele>
        <time>2009-01-15T13:14:33Z</time>
      </trkpt>
      <trkpt lat="44.76845" lon="0.78293">
        <ele>139</ele>
        <time>2009-01-15T13:14:36Z</time>
      </trkpt>
      <trkpt lat="44.76853" lon="0.78265">
        <ele>142</ele>
        <time>2009-01-15T13:14:40Z</time>
      </trkpt>
      <trkpt lat="44.7686" lon="0.7824">
        <ele>142</ele>
        <time>2009-01-15T13:14:52Z</time>
      </trkpt>
      <trkpt lat="44.76865" lon="0.7821">
        <ele>138</ele>
        <time>2009-01-15T13:14:58Z</time>
      </trkpt>
      <trkpt lat="44.7687" lon="0.78178">
        <ele>136</ele>
        <time>2009-01-15T13:15:01Z</time>
      </trkpt>
      <trkpt lat="44.7687" lon="0.7814">
        <ele>134</ele>
        <time>2009-01-15T13:15:04Z</time>
      </trkpt>
      <trkpt lat="44.76865" lon="0.78103">
        <ele>133</ele>
        <time>2009-01-15T13:15:07Z</time>
      </trkpt>
      <trkpt lat="44.76863" lon="0.78065">
        <ele>132</ele>
        <time>2009-01-15T13:15:10Z</time>
      </trkpt>
      <trkpt lat="44.7686" lon="0.7803">
        <ele>132</ele>
        <time>2009-01-15T13:15:13Z</time>
      </trkpt>
      <trkpt lat="44.7686" lon="0.77995">
        <ele>131</ele>
        <time>2009-01-15T13:15:16Z</time>
      </trkpt>
      <trkpt lat="44.76863" lon="0.77958">
        <ele>130</ele>
        <time>2009-01-15T13:15:19Z</time>
      </trkpt>
      <trkpt lat="44.76863" lon="0.77923">
        <ele>129</ele>
        <time>2009-01-15T13:15:22Z</time>
      </trkpt>
      <trkpt lat="44.76865" lon="0.7789">
        <ele>129</ele>
        <time>2009-01-15T13:15:25Z</time>
      </trkpt>
      <trkpt lat="44.7686" lon="0.77855">
        <ele>127</ele>
        <time>2009-01-15T13:15:28Z</time>
      </trkpt>
      <trkpt lat="44.76855" lon="0.77823">
        <ele>126</ele>
        <time>2009-01-15T13:15:31Z</time>
      </trkpt>
      <trkpt lat="44.76853" lon="0.77793">
        <ele>125</ele>
        <time>2009-01-15T13:15:34Z</time>
      </trkpt>
      <trkpt lat="44.76848" lon="0.77763">
        <ele>125</ele>
        <time>2009-01-15T13:15:37Z</time>
      </trkpt>
      <trkpt lat="44.76843" lon="0.77733">
        <ele>123</ele>
        <time>2009-01-15T13:15:40Z</time>
      </trkpt>
      <trkpt lat="44.7684" lon="0.77703">
        <ele>121</ele>
        <time>2009-01-15T13:15:43Z</time>
      </trkpt>
      <trkpt lat="44.7684" lon="0.77673">
        <ele>120</ele>
        <time>2009-01-15T13:15:46Z</time>
      </trkpt>
      <trkpt lat="44.7684" lon="0.7764">
        <ele>117</ele>
        <time>2009-01-15T13:15:49Z</time>
      </trkpt>
      <trkpt lat="44.76835" lon="0.7761">
        <ele>112</ele>
        <time>2009-01-15T13:15:52Z</time>
      </trkpt>
      <trkpt lat="44.7682" lon="0.77588">
        <ele>108</ele>
        <time>2009-01-15T13:15:56Z</time>
      </trkpt>
      <trkpt lat="44.7681" lon="0.77565">
        <ele>106</ele>
        <time>2009-01-15T13:15:59Z</time>
      </trkpt>
      <trkpt lat="44.76805" lon="0.77533">
        <ele>103</ele>
        <time>2009-01-15T13:16:02Z</time>
      </trkpt>
      <trkpt lat="44.76798" lon="0.775">
        <ele>101</ele>
        <time>2009-01-15T13:16:05Z</time>
      </trkpt>
      <trkpt lat="44.76793" lon="0.77468">
        <ele>102</ele>
        <time>2009-01-15T13:16:08Z</time>
      </trkpt>
      <trkpt lat="44.76788" lon="0.7743">
        <ele>105</ele>
        <time>2009-01-15T13:16:11Z</time>
      </trkpt>
      <trkpt lat="44.7679" lon="0.77398">
        <ele>108</ele>
        <time>2009-01-15T13:16:14Z</time>
      </trkpt>
      <trkpt lat="44.76798" lon="0.77368">
        <ele>111</ele>
        <time>2009-01-15T13:16:17Z</time>
      </trkpt>
      <trkpt lat="44.76805" lon="0.7734">
        <ele>115</ele>
        <time>2009-01-15T13:16:20Z</time>
      </trkpt>
      <trkpt lat="44.76808" lon="0.7731">
        <ele>118</ele>
        <time>2009-01-15T13:16:23Z</time>
      </trkpt>
      <trkpt lat="44.76813" lon="0.77285">
        <ele>123</ele>
        <time>2009-01-15T13:16:27Z</time>
      </trkpt>
      <trkpt lat="44.76821" lon="0.77258">
        <ele>130</ele>
        <time>2009-01-15T13:16:33Z</time>
      </trkpt>
      <trkpt lat="44.76835" lon="0.77211">
        <ele>131</ele>
        <time>2009-01-15T13:16:36Z</time>
      </trkpt>
    </trkseg>
  </trk>
</gpx>